SKY790 RJCC-RJAH
Flight info
| Callsign | SKY790 |
|---|---|
| Flight time | 1h 3m |
| Altitude | 30000 |
| Route | TOBBY Y10 DAIGO Y887 TATSU NAKAH |
| Aircraft | B738/M-SDE2E3FGHIRWXY/LB1 |
Departure
| Time | 2026-05-05 01:16 |
|---|---|
| Airport | New Chitose Airport (RJCC) |
Arrival
| Time | 2026-05-05 02:19 |
|---|---|
| Airport | Ibaraki Airport (RJAH) |
| Time | Latitude | Longitude | Altitude | Speed | Heading |
|---|---|---|---|---|---|
| 2026-05-05 00:59 | 42.78992 | 141.68107 | 78 ft | 0 kts | 217° |
| 2026-05-05 01:09 | 42.79009 | 141.68124 | 68 ft | 3 kts | 217° |
| 2026-05-05 01:09 | 42.79025 | 141.68141 | 76 ft | 3 kts | 216° |
| 2026-05-05 01:09 | 42.79041 | 141.68156 | 66 ft | 0 kts | 216° |
| 2026-05-05 01:11 | 42.79037 | 141.68159 | 74 ft | 1 kts | 160° |
| 2026-05-05 01:11 | 42.79039 | 141.68170 | 72 ft | 1 kts | 60° |
| 2026-05-05 01:11 | 42.79046 | 141.68177 | 70 ft | 1 kts | 41° |
| 2026-05-05 01:11 | 42.79057 | 141.68192 | 68 ft | 3 kts | 44° |
| 2026-05-05 01:12 | 42.79079 | 141.68220 | 74 ft | 5 kts | 41° |
| 2026-05-05 01:12 | 42.79120 | 141.68266 | 72 ft | 10 kts | 43° |
| 2026-05-05 01:12 | 42.79128 | 141.68368 | 72 ft | 13 kts | 126° |
| 2026-05-05 01:12 | 42.79062 | 141.68450 | 74 ft | 13 kts | 145° |
| 2026-05-05 01:13 | 42.78985 | 141.68512 | 72 ft | 13 kts | 150° |
| 2026-05-05 01:13 | 42.78948 | 141.68613 | 78 ft | 13 kts | 82° |
| 2026-05-05 01:13 | 42.78950 | 141.68642 | 75 ft | 0 kts | 86° |
| 2026-05-05 01:13 | 42.78950 | 141.68648 | 74 ft | 3 kts | 90° |
| 2026-05-05 01:14 | 42.78932 | 141.68707 | 76 ft | 11 kts | 133° |
| 2026-05-05 01:14 | 42.78869 | 141.68778 | 76 ft | 12 kts | 138° |
| 2026-05-05 01:14 | 42.78798 | 141.68822 | 70 ft | 11 kts | 172° |
| 2026-05-05 01:14 | 42.78773 | 141.68826 | 69 ft | 0 kts | 172° |
| 2026-05-05 01:15 | 42.78679 | 141.68842 | 83 ft | 45 kts | 173° |
| 2026-05-05 01:15 | 42.78123 | 141.68939 | 72 ft | 114 kts | 173° |
| 2026-05-05 01:15 | 42.77138 | 141.69105 | 83 ft | 171 kts | 174° |
| 2026-05-05 01:15 | 42.75848 | 141.69340 | 461 ft | 194 kts | 172° |
| 2026-05-05 01:16 | 42.74455 | 141.69503 | 1043 ft | 213 kts | 183° |
| 2026-05-05 01:16 | 42.72878 | 141.69256 | 1369 ft | 233 kts | 188° |
| 2026-05-05 01:16 | 42.71229 | 141.68943 | 1399 ft | 240 kts | 188° |
| 2026-05-05 01:16 | 42.69635 | 141.68638 | 1584 ft | 224 kts | 186° |
| 2026-05-05 01:17 | 42.68068 | 141.68639 | 1758 ft | 237 kts | 178° |
| 2026-05-05 01:17 | 42.66377 | 141.68744 | 2246 ft | 246 kts | 182° |
| 2026-05-05 01:17 | 42.64640 | 141.68965 | 2968 ft | 254 kts | 174° |
| 2026-05-05 01:17 | 42.62862 | 141.69245 | 3587 ft | 261 kts | 180° |
| 2026-05-05 01:18 | 42.61023 | 141.69454 | 4211 ft | 266 kts | 181° |
| 2026-05-05 01:18 | 42.59167 | 141.69645 | 4852 ft | 272 kts | 182° |
| 2026-05-05 01:18 | 42.57261 | 141.69830 | 5445 ft | 276 kts | 182° |
| 2026-05-05 01:18 | 42.55342 | 141.70016 | 6183 ft | 276 kts | 182° |
| 2026-05-05 01:19 | 42.53419 | 141.70201 | 6835 ft | 278 kts | 182° |
| 2026-05-05 01:19 | 42.51470 | 141.70387 | 7433 ft | 283 kts | 181° |
| 2026-05-05 01:19 | 42.49494 | 141.70574 | 8031 ft | 286 kts | 181° |
| 2026-05-05 01:19 | 42.47497 | 141.70764 | 8658 ft | 289 kts | 181° |
| 2026-05-05 01:20 | 42.45483 | 141.70956 | 9279 ft | 292 kts | 181° |
| 2026-05-05 01:20 | 42.43435 | 141.71150 | 9893 ft | 296 kts | 181° |
| 2026-05-05 01:20 | 42.41375 | 141.71345 | 10445 ft | 299 kts | 181° |
| 2026-05-05 01:20 | 42.39280 | 141.71543 | 10967 ft | 303 kts | 181° |
| 2026-05-05 01:21 | 42.37163 | 141.71742 | 11502 ft | 307 kts | 181° |
| 2026-05-05 01:21 | 42.34965 | 141.71945 | 11516 ft | 331 kts | 181° |
| 2026-05-05 01:21 | 42.32621 | 141.72161 | 11501 ft | 353 kts | 180° |
| 2026-05-05 01:21 | 42.30096 | 141.72399 | 11480 ft | 374 kts | 180° |
| 2026-05-05 01:22 | 42.27427 | 141.72652 | 11458 ft | 394 kts | 180° |
| 2026-05-05 01:22 | 42.24654 | 141.72918 | 11429 ft | 401 kts | 180° |
| 2026-05-05 01:22 | 42.21863 | 141.73188 | 11435 ft | 401 kts | 180° |
| 2026-05-05 01:22 | 42.19073 | 141.73456 | 11441 ft | 401 kts | 180° |
| 2026-05-05 01:23 | 42.16286 | 141.73721 | 11429 ft | 402 kts | 180° |
| 2026-05-05 01:23 | 42.13503 | 141.73984 | 11431 ft | 402 kts | 180° |
| 2026-05-05 01:23 | 42.10713 | 141.74246 | 11442 ft | 401 kts | 180° |
| 2026-05-05 01:23 | 42.07914 | 141.74508 | 11469 ft | 406 kts | 180° |
| 2026-05-05 01:24 | 42.05094 | 141.74772 | 12058 ft | 406 kts | 180° |
| 2026-05-05 01:24 | 42.02302 | 141.75033 | 12612 ft | 409 kts | 180° |
| 2026-05-05 01:24 | 41.99395 | 141.75302 | 12991 ft | 417 kts | 180° |
| 2026-05-05 01:24 | 41.96523 | 141.75570 | 13468 ft | 420 kts | 180° |
| 2026-05-05 01:25 | 41.93600 | 141.75845 | 14013 ft | 423 kts | 180° |
| 2026-05-05 01:25 | 41.90648 | 141.76122 | 14424 ft | 427 kts | 180° |
| 2026-05-05 01:25 | 41.87662 | 141.76403 | 14791 ft | 433 kts | 180° |
| 2026-05-05 01:25 | 41.84646 | 141.76689 | 15215 ft | 436 kts | 180° |
| 2026-05-05 01:26 | 41.81609 | 141.76976 | 15649 ft | 440 kts | 180° |
| 2026-05-05 01:26 | 41.78542 | 141.77265 | 16054 ft | 444 kts | 180° |
| 2026-05-05 01:26 | 41.75452 | 141.77555 | 16429 ft | 448 kts | 180° |
| 2026-05-05 01:26 | 41.72325 | 141.77848 | 16765 ft | 453 kts | 180° |
| 2026-05-05 01:27 | 41.69157 | 141.78145 | 17135 ft | 457 kts | 180° |
| 2026-05-05 01:27 | 41.65976 | 141.78442 | 17552 ft | 460 kts | 180° |
| 2026-05-05 01:27 | 41.62772 | 141.78742 | 17965 ft | 463 kts | 180° |
| 2026-05-05 01:27 | 41.59536 | 141.79043 | 18328 ft | 468 kts | 180° |
| 2026-05-05 01:28 | 41.56275 | 141.79346 | 18634 ft | 472 kts | 180° |
| 2026-05-05 01:28 | 41.52990 | 141.79648 | 19001 ft | 473 kts | 181° |
| 2026-05-05 01:28 | 41.49742 | 141.79610 | 19277 ft | 473 kts | 190° |
| 2026-05-05 01:28 | 41.46519 | 141.78861 | 19573 ft | 468 kts | 199° |
| 2026-05-05 01:29 | 41.43379 | 141.77787 | 20112 ft | 465 kts | 200° |
| 2026-05-05 01:29 | 41.40231 | 141.76709 | 20470 ft | 468 kts | 200° |
| 2026-05-05 01:29 | 41.37067 | 141.75636 | 20705 ft | 473 kts | 200° |
| 2026-05-05 01:29 | 41.33846 | 141.74560 | 20966 ft | 477 kts | 199° |
| 2026-05-05 01:30 | 41.30615 | 141.73495 | 21294 ft | 480 kts | 199° |
| 2026-05-05 01:30 | 41.27363 | 141.72434 | 21586 ft | 483 kts | 199° |
| 2026-05-05 01:30 | 41.24081 | 141.71369 | 21869 ft | 485 kts | 199° |
| 2026-05-05 01:30 | 41.20798 | 141.70308 | 22194 ft | 487 kts | 199° |
| 2026-05-05 01:31 | 41.17491 | 141.69239 | 22504 ft | 489 kts | 199° |
| 2026-05-05 01:31 | 41.14174 | 141.68167 | 22781 ft | 492 kts | 199° |
| 2026-05-05 01:31 | 41.10839 | 141.67090 | 23068 ft | 494 kts | 199° |
| 2026-05-05 01:31 | 41.07492 | 141.66010 | 23354 ft | 496 kts | 199° |
| 2026-05-05 01:32 | 41.04169 | 141.64938 | 23625 ft | 499 kts | 199° |
| 2026-05-05 01:32 | 41.00788 | 141.63849 | 23833 ft | 501 kts | 199° |
| 2026-05-05 01:32 | 40.97405 | 141.62761 | 24112 ft | 501 kts | 199° |
| 2026-05-05 01:32 | 40.93970 | 141.61657 | 24405 ft | 502 kts | 199° |
| 2026-05-05 01:33 | 40.90621 | 141.60582 | 24668 ft | 502 kts | 199° |
| 2026-05-05 01:33 | 40.87218 | 141.59490 | 24909 ft | 503 kts | 199° |
| 2026-05-05 01:33 | 40.83809 | 141.58398 | 25143 ft | 505 kts | 199° |
| 2026-05-05 01:33 | 40.80403 | 141.57307 | 25390 ft | 505 kts | 199° |
| 2026-05-05 01:34 | 40.76974 | 141.56211 | 25675 ft | 504 kts | 199° |
| 2026-05-05 01:34 | 40.73568 | 141.55124 | 26066 ft | 501 kts | 199° |
| 2026-05-05 01:34 | 40.70193 | 141.54049 | 26506 ft | 497 kts | 199° |
| 2026-05-05 01:34 | 40.66838 | 141.52981 | 26888 ft | 495 kts | 199° |
| 2026-05-05 01:35 | 40.63488 | 141.51914 | 27185 ft | 495 kts | 199° |
| 2026-05-05 01:35 | 40.61269 | 141.51206 | 27350 ft | 495 kts | 199° |
| 2026-05-05 01:35 | 40.57911 | 141.50136 | 27644 ft | 495 kts | 199° |
| 2026-05-05 01:35 | 40.54580 | 141.49078 | 28071 ft | 491 kts | 199° |
| 2026-05-05 01:36 | 40.50198 | 141.47690 | 28676 ft | 486 kts | 199° |
| 2026-05-05 01:36 | 40.47988 | 141.46990 | 28926 ft | 484 kts | 199° |
| 2026-05-05 01:36 | 40.44715 | 141.45952 | 29198 ft | 485 kts | 199° |
| 2026-05-05 01:36 | 40.41427 | 141.44910 | 29460 ft | 485 kts | 199° |
| 2026-05-05 01:37 | 40.38154 | 141.43874 | 29802 ft | 483 kts | 199° |
| 2026-05-05 01:37 | 40.34900 | 141.42848 | 30125 ft | 480 kts | 200° |
| 2026-05-05 01:37 | 40.28400 | 141.40797 | 30086 ft | 478 kts | 200° |
| 2026-05-05 01:38 | 40.21960 | 141.38768 | 30091 ft | 479 kts | 200° |
| 2026-05-05 01:38 | 40.15480 | 141.36730 | 30094 ft | 479 kts | 200° |
| 2026-05-05 01:39 | 40.08996 | 141.34695 | 30098 ft | 479 kts | 200° |
| 2026-05-05 01:39 | 40.02519 | 141.32667 | 30104 ft | 479 kts | 200° |
| 2026-05-05 01:40 | 39.96042 | 141.30608 | 30107 ft | 479 kts | 201° |
| 2026-05-05 01:40 | 39.89581 | 141.28483 | 30118 ft | 478 kts | 201° |
| 2026-05-05 01:41 | 39.83134 | 141.26360 | 30095 ft | 478 kts | 201° |
| 2026-05-05 01:41 | 39.76681 | 141.24249 | 30116 ft | 477 kts | 201° |
| 2026-05-05 01:42 | 39.70278 | 141.22162 | 30088 ft | 476 kts | 201° |
| 2026-05-05 01:42 | 39.63860 | 141.20074 | 30103 ft | 475 kts | 201° |
| 2026-05-05 01:43 | 39.57446 | 141.17990 | 30113 ft | 474 kts | 201° |
| 2026-05-05 01:43 | 39.51060 | 141.15917 | 30070 ft | 472 kts | 201° |
| 2026-05-05 01:44 | 39.44695 | 141.13857 | 30104 ft | 471 kts | 201° |
| 2026-05-05 01:44 | 39.38338 | 141.11862 | 30117 ft | 470 kts | 200° |
| 2026-05-05 01:45 | 39.31997 | 141.09967 | 30102 ft | 470 kts | 200° |
| 2026-05-05 01:45 | 39.25654 | 141.08070 | 30144 ft | 467 kts | 200° |
| 2026-05-05 01:46 | 39.19323 | 141.06162 | 30164 ft | 466 kts | 201° |
| 2026-05-05 01:46 | 39.13009 | 141.04258 | 30145 ft | 465 kts | 201° |
| 2026-05-05 01:47 | 39.06715 | 141.02368 | 30157 ft | 463 kts | 200° |
| 2026-05-05 01:47 | 39.00446 | 141.00486 | 30150 ft | 462 kts | 200° |
| 2026-05-05 01:48 | 38.94186 | 140.98609 | 30146 ft | 462 kts | 201° |
| 2026-05-05 01:48 | 38.87980 | 140.96753 | 30131 ft | 460 kts | 200° |
| 2026-05-05 01:49 | 38.81755 | 140.94891 | 30139 ft | 459 kts | 200° |
| 2026-05-05 01:49 | 38.75538 | 140.93038 | 30156 ft | 459 kts | 201° |
| 2026-05-05 01:50 | 38.69331 | 140.91193 | 30131 ft | 457 kts | 201° |
| 2026-05-05 01:50 | 38.63144 | 140.89356 | 30156 ft | 456 kts | 201° |
| 2026-05-05 01:51 | 38.56979 | 140.87526 | 30163 ft | 454 kts | 201° |
| 2026-05-05 01:51 | 38.50820 | 140.85710 | 30174 ft | 453 kts | 201° |
| 2026-05-05 01:52 | 38.44680 | 140.83920 | 30159 ft | 452 kts | 201° |
| 2026-05-05 01:52 | 38.38541 | 140.82127 | 30165 ft | 451 kts | 201° |
| 2026-05-05 01:53 | 38.32423 | 140.80337 | 30155 ft | 450 kts | 202° |
| 2026-05-05 01:53 | 38.26369 | 140.78574 | 30163 ft | 442 kts | 202° |
| 2026-05-05 01:54 | 38.20446 | 140.76846 | 30184 ft | 439 kts | 202° |
| 2026-05-05 01:54 | 38.14485 | 140.75095 | 30157 ft | 439 kts | 202° |
| 2026-05-05 01:55 | 38.08521 | 140.73345 | 30152 ft | 439 kts | 202° |
| 2026-05-05 01:55 | 38.02568 | 140.71603 | 30158 ft | 439 kts | 202° |
| 2026-05-05 01:56 | 37.96612 | 140.69859 | 29757 ft | 443 kts | 202° |
| 2026-05-05 01:56 | 37.93592 | 140.68974 | 29270 ft | 439 kts | 202° |
| 2026-05-05 01:56 | 37.90633 | 140.68118 | 28442 ft | 439 kts | 201° |
| 2026-05-05 01:57 | 37.87648 | 140.67246 | 27824 ft | 438 kts | 201° |
| 2026-05-05 01:57 | 37.84667 | 140.66377 | 27055 ft | 440 kts | 201° |
| 2026-05-05 01:57 | 37.81729 | 140.65520 | 26629 ft | 435 kts | 200° |
| 2026-05-05 01:57 | 37.78809 | 140.64675 | 26425 ft | 425 kts | 201° |
| 2026-05-05 01:58 | 37.75942 | 140.63845 | 26145 ft | 422 kts | 200° |
| 2026-05-05 01:58 | 37.73080 | 140.63012 | 25651 ft | 421 kts | 200° |
| 2026-05-05 01:58 | 37.70212 | 140.62183 | 25044 ft | 423 kts | 200° |
| 2026-05-05 01:58 | 37.67333 | 140.61356 | 24258 ft | 429 kts | 200° |
| 2026-05-05 01:59 | 37.64431 | 140.60524 | 23863 ft | 425 kts | 200° |
| 2026-05-05 01:59 | 37.61542 | 140.59699 | 23200 ft | 427 kts | 200° |
| 2026-05-05 01:59 | 37.58657 | 140.58876 | 22791 ft | 422 kts | 200° |
| 2026-05-05 01:59 | 37.55804 | 140.58061 | 22300 ft | 419 kts | 200° |
| 2026-05-05 02:00 | 37.52974 | 140.57252 | 21859 ft | 416 kts | 200° |
| 2026-05-05 02:00 | 37.50165 | 140.56444 | 21405 ft | 413 kts | 200° |
| 2026-05-05 02:00 | 37.47401 | 140.55654 | 20959 ft | 410 kts | 200° |
| 2026-05-05 02:00 | 37.44588 | 140.54852 | 20516 ft | 408 kts | 199° |
| 2026-05-05 02:01 | 37.41870 | 140.54075 | 20090 ft | 406 kts | 199° |
| 2026-05-05 02:01 | 37.39085 | 140.53280 | 19651 ft | 404 kts | 199° |
| 2026-05-05 02:01 | 37.36377 | 140.52506 | 19186 ft | 404 kts | 199° |
| 2026-05-05 02:01 | 37.33648 | 140.51726 | 18765 ft | 402 kts | 199° |
| 2026-05-05 02:02 | 37.30921 | 140.50948 | 18261 ft | 403 kts | 199° |
| 2026-05-05 02:02 | 37.28186 | 140.50169 | 17788 ft | 400 kts | 199° |
| 2026-05-05 02:02 | 37.25475 | 140.49400 | 17332 ft | 399 kts | 199° |
| 2026-05-05 02:02 | 37.22756 | 140.48619 | 16575 ft | 405 kts | 199° |
| 2026-05-05 02:03 | 37.20009 | 140.47827 | 16187 ft | 402 kts | 199° |
| 2026-05-05 02:03 | 37.17283 | 140.47044 | 15634 ft | 403 kts | 198° |
| 2026-05-05 02:03 | 37.14562 | 140.46272 | 15240 ft | 400 kts | 198° |
| 2026-05-05 02:03 | 37.11836 | 140.45504 | 14760 ft | 400 kts | 198° |
| 2026-05-05 02:04 | 37.09126 | 140.44741 | 14350 ft | 398 kts | 198° |
| 2026-05-05 02:04 | 37.06425 | 140.43979 | 13871 ft | 398 kts | 198° |
| 2026-05-05 02:04 | 37.03730 | 140.43218 | 13433 ft | 396 kts | 197° |
| 2026-05-05 02:04 | 37.01050 | 140.42461 | 12991 ft | 393 kts | 197° |
| 2026-05-05 02:05 | 36.98432 | 140.41720 | 12552 ft | 391 kts | 198° |
| 2026-05-05 02:05 | 36.95785 | 140.40973 | 12132 ft | 388 kts | 197° |
| 2026-05-05 02:05 | 36.93167 | 140.40241 | 11750 ft | 385 kts | 197° |
| 2026-05-05 02:05 | 36.90562 | 140.39509 | 11354 ft | 382 kts | 197° |
| 2026-05-05 02:06 | 36.88003 | 140.38796 | 11236 ft | 369 kts | 197° |
| 2026-05-05 02:06 | 36.85556 | 140.38115 | 11031 ft | 353 kts | 196° |
| 2026-05-05 02:06 | 36.83210 | 140.37461 | 10908 ft | 337 kts | 196° |
| 2026-05-05 02:06 | 36.80980 | 140.36842 | 10777 ft | 322 kts | 195° |
| 2026-05-05 02:07 | 36.78835 | 140.36248 | 10651 ft | 309 kts | 195° |
| 2026-05-05 02:07 | 36.76725 | 140.36074 | 10461 ft | 303 kts | 169° |
| 2026-05-05 02:07 | 36.74834 | 140.37039 | 10467 ft | 290 kts | 143° |
| 2026-05-05 02:07 | 36.73394 | 140.38751 | 10312 ft | 286 kts | 123° |
| 2026-05-05 02:08 | 36.72476 | 140.40974 | 10249 ft | 295 kts | 108° |
| 2026-05-05 02:08 | 36.71725 | 140.43400 | 9802 ft | 303 kts | 107° |
| 2026-05-05 02:08 | 36.70989 | 140.45813 | 9570 ft | 293 kts | 107° |
| 2026-05-05 02:08 | 36.70261 | 140.48159 | 9258 ft | 285 kts | 109° |
| 2026-05-05 02:09 | 36.69553 | 140.50419 | 9042 ft | 275 kts | 109° |
| 2026-05-05 02:09 | 36.68848 | 140.52604 | 8816 ft | 268 kts | 114° |
| 2026-05-05 02:09 | 36.67669 | 140.54355 | 8506 ft | 267 kts | 149° |
| 2026-05-05 02:09 | 36.65920 | 140.55139 | 8349 ft | 275 kts | 176° |
| 2026-05-05 02:10 | 36.64037 | 140.54861 | 8083 ft | 280 kts | 204° |
| 2026-05-05 02:10 | 36.62338 | 140.53719 | 7833 ft | 276 kts | 216° |
| 2026-05-05 02:10 | 36.60759 | 140.52379 | 7492 ft | 271 kts | 218° |
| 2026-05-05 02:10 | 36.59224 | 140.51054 | 7221 ft | 265 kts | 218° |
| 2026-05-05 02:11 | 36.57718 | 140.49774 | 6940 ft | 259 kts | 217° |
| 2026-05-05 02:11 | 36.56236 | 140.48537 | 6705 ft | 255 kts | 218° |
| 2026-05-05 02:11 | 36.54749 | 140.47297 | 6431 ft | 260 kts | 217° |
| 2026-05-05 02:11 | 36.53227 | 140.46034 | 6169 ft | 266 kts | 217° |
| 2026-05-05 02:12 | 36.51679 | 140.44749 | 5886 ft | 266 kts | 216° |
| 2026-05-05 02:12 | 36.48682 | 140.42281 | 5436 ft | 246 kts | 217° |
| 2026-05-05 02:12 | 36.47312 | 140.41152 | 5347 ft | 232 kts | 216° |
| 2026-05-05 02:13 | 36.45954 | 140.40027 | 4883 ft | 238 kts | 216° |
| 2026-05-05 02:13 | 36.44585 | 140.38949 | 4661 ft | 231 kts | 207° |
| 2026-05-05 02:13 | 36.43026 | 140.38704 | 4376 ft | 227 kts | 165° |
| 2026-05-05 02:13 | 36.41598 | 140.39446 | 4250 ft | 223 kts | 151° |
| 2026-05-05 02:14 | 36.40243 | 140.40427 | 4001 ft | 227 kts | 149° |
| 2026-05-05 02:14 | 36.38878 | 140.41449 | 3778 ft | 228 kts | 149° |
| 2026-05-05 02:14 | 36.37528 | 140.42446 | 3556 ft | 223 kts | 149° |
| 2026-05-05 02:14 | 36.36224 | 140.43399 | 3381 ft | 212 kts | 150° |
| 2026-05-05 02:15 | 36.34988 | 140.44295 | 3240 ft | 200 kts | 150° |
| 2026-05-05 02:15 | 36.33828 | 140.45134 | 3138 ft | 187 kts | 150° |
| 2026-05-05 02:15 | 36.32736 | 140.45923 | 2956 ft | 173 kts | 151° |
| 2026-05-05 02:15 | 36.31749 | 140.46627 | 2824 ft | 153 kts | 153° |
| 2026-05-05 02:16 | 36.30767 | 140.46815 | 2638 ft | 144 kts | 199° |
| 2026-05-05 02:16 | 36.29811 | 140.46428 | 2525 ft | 153 kts | 197° |
| 2026-05-05 02:16 | 36.28789 | 140.46048 | 2321 ft | 154 kts | 200° |
| 2026-05-05 02:16 | 36.27763 | 140.45606 | 2082 ft | 156 kts | 201° |
| 2026-05-05 02:17 | 36.26753 | 140.45158 | 1878 ft | 155 kts | 202° |
| 2026-05-05 02:17 | 36.25740 | 140.44707 | 1674 ft | 154 kts | 201° |
| 2026-05-05 02:17 | 36.24739 | 140.44260 | 1462 ft | 152 kts | 202° |
| 2026-05-05 02:17 | 36.23747 | 140.43818 | 1286 ft | 151 kts | 201° |
| 2026-05-05 02:18 | 36.22759 | 140.43383 | 1031 ft | 151 kts | 202° |
| 2026-05-05 02:18 | 36.21774 | 140.42943 | 744 ft | 154 kts | 200° |
| 2026-05-05 02:18 | 36.20759 | 140.42486 | 455 ft | 156 kts | 202° |
| 2026-05-05 02:18 | 36.19742 | 140.42029 | 190 ft | 153 kts | 201° |
| 2026-05-05 02:19 | 36.18823 | 140.41619 | 109 ft | 127 kts | 201° |
| 2026-05-05 02:19 | 36.18335 | 140.41401 | 110 ft | 7 kts | 199° |
| 2026-05-05 02:19 | 36.18271 | 140.41373 | 111 ft | 10 kts | 200° |
| 2026-05-05 02:19 | 36.18199 | 140.41357 | 110 ft | 11 kts | 161° |
| 2026-05-05 02:20 | 36.18151 | 140.41438 | 110 ft | 13 kts | 109° |
| 2026-05-05 02:20 | 36.18123 | 140.41539 | 112 ft | 12 kts | 110° |
| 2026-05-05 02:20 | 36.18092 | 140.41639 | 110 ft | 13 kts | 110° |
| 2026-05-05 02:20 | 36.18060 | 140.41754 | 110 ft | 14 kts | 113° |
| 2026-05-05 02:21 | 36.17982 | 140.41746 | 110 ft | 14 kts | 224° |
| 2026-05-05 02:21 | 36.17909 | 140.41652 | 111 ft | 17 kts | 226° |
| 2026-05-05 02:21 | 36.17811 | 140.41593 | 111 ft | 16 kts | 171° |
| 2026-05-05 02:21 | 36.17681 | 140.41623 | 110 ft | 23 kts | 173° |
| 2026-05-05 02:22 | 36.17532 | 140.41574 | 111 ft | 22 kts | 199° |
| 2026-05-05 02:22 | 36.17430 | 140.41530 | 109 ft | 2 kts | 199° |
| 2026-05-05 02:22 | 36.17396 | 140.41515 | 111 ft | 13 kts | 200° |
| 2026-05-05 02:22 | 36.17282 | 140.41464 | 111 ft | 18 kts | 200° |
| 2026-05-05 02:23 | 36.17180 | 140.41406 | 109 ft | 14 kts | 238° |
| 2026-05-05 02:23 | 36.17197 | 140.41293 | 111 ft | 13 kts | 289° |
| 2026-05-05 02:23 | 36.17237 | 140.41194 | 110 ft | 13 kts | 324° |
| 2026-05-05 02:23 | 36.17325 | 140.41202 | 112 ft | 13 kts | 18° |
| 2026-05-05 02:24 | 36.17412 | 140.41239 | 110 ft | 13 kts | 20° |
| 2026-05-05 02:24 | 36.17504 | 140.41279 | 111 ft | 16 kts | 19° |
| 2026-05-05 02:24 | 36.17631 | 140.41310 | 111 ft | 20 kts | 329° |
| 2026-05-05 02:24 | 36.17692 | 140.41160 | 109 ft | 19 kts | 289° |
| 2026-05-05 02:25 | 36.17720 | 140.41056 | 109 ft | 19 kts | 288° |
| 2026-05-05 02:25 | 36.17780 | 140.40894 | 109 ft | 11 kts | 290° |
| 2026-05-05 02:25 | 36.17820 | 140.40851 | 110 ft | 8 kts | 359° |
| 2026-05-05 02:25 | 36.17836 | 140.40881 | 110 ft | 1 kts | 99° |
| 2026-05-05 02:26 | 36.17836 | 140.40883 | 110 ft | 0 kts | 99° |